sensor_id;sensor_type;location;lat;lon;timestamp;pressure;altitude;pressure_sealevel;temperature;humidity
57594;BME280;43423;46.510;6.686;2023-05-08T00:01:34;96793.16;;;14.99;100.00
57594;BME280;43423;46.510;6.686;2023-05-08T00:03:59;96792.66;;;14.95;100.00
57594;BME280;43423;46.510;6.686;2023-05-08T00:06:25;96799.44;;;14.94;100.00
57594;BME280;43423;46.510;6.686;2023-05-08T00:08:53;96795.41;;;14.95;100.00
57594;BME280;43423;46.510;6.686;2023-05-08T00:11:19;96803.44;;;14.93;100.00
57594;BME280;43423;46.510;6.686;2023-05-08T00:13:45;96795.91;;;14.88;100.00
57594;BME280;43423;46.510;6.686;2023-05-08T00:16:10;96795.16;;;14.87;100.00
57594;BME280;43423;46.510;6.686;2023-05-08T00:18:37;96793.91;;;14.94;100.00
57594;BME280;43423;46.510;6.686;2023-05-08T00:21:06;96788.63;;;14.96;100.00
57594;BME280;43423;46.510;6.686;2023-05-08T00:23:32;96794.19;;;15.01;100.00
57594;BME280;43423;46.510;6.686;2023-05-08T00:25:57;96801.44;;;14.99;100.00
57594;BME280;43423;46.510;6.686;2023-05-08T00:28:23;96804.22;;;14.99;100.00
57594;BME280;43423;46.510;6.686;2023-05-08T00:30:48;96805.50;;;15.03;100.00
57594;BME280;43423;46.510;6.686;2023-05-08T00:33:14;96804.75;;;15.08;100.00
57594;BME280;43423;46.510;6.686;2023-05-08T00:35:40;96805.28;;;15.13;100.00
57594;BME280;43423;46.510;6.686;2023-05-08T00:38:08;96803.50;;;15.15;100.00
57594;BME280;43423;46.510;6.686;2023-05-08T00:40:33;96805.78;;;15.17;100.00
57594;BME280;43423;46.510;6.686;2023-05-08T00:42:59;96805.00;;;15.16;100.00
57594;BME280;43423;46.510;6.686;2023-05-08T00:45:32;96807.78;;;15.16;100.00
57594;BME280;43423;46.510;6.686;2023-05-08T00:47:59;96804.75;;;15.08;100.00
57594;BME280;43423;46.510;6.686;2023-05-08T00:50:25;96799.72;;;15.01;100.00
57594;BME280;43423;46.510;6.686;2023-05-08T00:52:51;96802.22;;;15.05;100.00
57594;BME280;43423;46.510;6.686;2023-05-08T00:55:18;96794.66;;;15.00;100.00
57594;BME280;43423;46.510;6.686;2023-05-08T00:57:45;96803.25;;;15.02;100.00
57594;BME280;43423;46.510;6.686;2023-05-08T01:00:12;96809.28;;;15.06;100.00
57594;BME280;43423;46.510;6.686;2023-05-08T01:02:38;96805.53;;;15.09;100.00
57594;BME280;43423;46.510;6.686;2023-05-08T01:05:04;96810.31;;;15.14;100.00
57594;BME280;43423;46.510;6.686;2023-05-08T01:07:31;96806.50;;;15.06;100.00
57594;BME280;43423;46.510;6.686;2023-05-08T01:09:56;96808.50;;;15.00;100.00
57594;BME280;43423;46.510;6.686;2023-05-08T01:15:20;96806.47;;;14.89;100.00
57594;BME280;43423;46.510;6.686;2023-05-08T01:18:14;96811.00;;;14.87;100.00
57594;BME280;43423;46.510;6.686;2023-05-08T01:21:21;96813.25;;;14.88;100.00
57594;BME280;43423;46.510;6.686;2023-05-08T01:24:03;96805.97;;;14.85;100.00
57594;BME280;43423;46.510;6.686;2023-05-08T01:26:46;96814.28;;;14.85;100.00
57594;BME280;43423;46.510;6.686;2023-05-08T01:29:39;96813.28;;;14.94;100.00
57594;BME280;43423;46.510;6.686;2023-05-08T01:34:45;96818.03;;;14.88;100.00
57594;BME280;43423;46.510;6.686;2023-05-08T01:37:16;96816.75;;;14.83;100.00
57594;BME280;43423;46.510;6.686;2023-05-08T01:45:17;96805.69;;;14.83;100.00
57594;BME280;43423;46.510;6.686;2023-05-08T01:47:50;96807.44;;;14.80;100.00
57594;BME280;43423;46.510;6.686;2023-05-08T01:50:24;96808.72;;;14.79;100.00
57594;BME280;43423;46.510;6.686;2023-05-08T01:52:57;96805.94;;;14.79;100.00
57594;BME280;43423;46.510;6.686;2023-05-08T01:55:30;96804.44;;;14.78;100.00
57594;BME280;43423;46.510;6.686;2023-05-08T01:57:58;96808.19;;;14.75;100.00
57594;BME280;43423;46.510;6.686;2023-05-08T02:00:25;96802.13;;;14.77;100.00
57594;BME280;43423;46.510;6.686;2023-05-08T02:02:53;96798.38;;;14.74;100.00
57594;BME280;43423;46.510;6.686;2023-05-08T02:05:20;96800.88;;;14.72;100.00
57594;BME280;43423;46.510;6.686;2023-05-08T02:07:48;96794.34;;;14.70;100.00
57594;BME280;43423;46.510;6.686;2023-05-08T02:10:14;96799.13;;;14.69;100.00
57594;BME280;43423;46.510;6.686;2023-05-08T02:12:42;96788.25;;;14.60;100.00
57594;BME280;43423;46.510;6.686;2023-05-08T02:15:09;96801.59;;;14.67;100.00
57594;BME280;43423;46.510;6.686;2023-05-08T02:17:38;96791.00;;;14.60;100.00
57594;BME280;43423;46.510;6.686;2023-05-08T02:20:06;96788.25;;;14.60;100.00
57594;BME280;43423;46.510;6.686;2023-05-08T02:22:40;96796.53;;;14.60;100.00
57594;BME280;43423;46.510;6.686;2023-05-08T02:25:08;96793.00;;;14.54;100.00
57594;BME280;43423;46.510;6.686;2023-05-08T02:27:39;96799.03;;;14.52;100.00
57594;BME280;43423;46.510;6.686;2023-05-08T02:30:11;96803.56;;;14.50;100.00
57594;BME280;43423;46.510;6.686;2023-05-08T02:32:40;96796.03;;;14.56;100.00
57594;BME280;43423;46.510;6.686;2023-05-08T02:35:07;96794.81;;;14.63;100.00
57594;BME280;43423;46.510;6.686;2023-05-08T02:37:34;96798.56;;;14.54;100.00
57594;BME280;43423;46.510;6.686;2023-05-08T02:40:00;96800.78;;;14.50;100.00
57594;BME280;43423;46.510;6.686;2023-05-08T02:42:29;96803.03;;;14.51;100.00
57594;BME280;43423;46.510;6.686;2023-05-08T02:44:54;96807.09;;;14.56;100.00
57594;BME280;43423;46.510;6.686;2023-05-08T02:47:24;96805.31;;;14.53;100.00
57594;BME280;43423;46.510;6.686;2023-05-08T02:50:01;96797.28;;;14.55;100.00
57594;BME280;43423;46.510;6.686;2023-05-08T02:52:31;96800.81;;;14.56;100.00
57594;BME280;43423;46.510;6.686;2023-05-08T02:55:01;96789.75;;;14.56;100.00
57594;BME280;43423;46.510;6.686;2023-05-08T02:57:42;96790.72;;;14.52;100.00
57594;BME280;43423;46.510;6.686;2023-05-08T03:00:15;96797.00;;;14.47;100.00
57594;BME280;43423;46.510;6.686;2023-05-08T03:02:48;96802.53;;;14.47;100.00
57594;BME280;43423;46.510;6.686;2023-05-08T03:05:29;96799.78;;;14.53;100.00
57594;BME280;43423;46.510;6.686;2023-05-08T03:07:59;96799.03;;;14.52;100.00
57594;BME280;43423;46.510;6.686;2023-05-08T03:10:28;96798.56;;;14.54;100.00
57594;BME280;43423;46.510;6.686;2023-05-08T03:12:56;96803.56;;;14.50;100.00
57594;BME280;43423;46.510;6.686;2023-05-08T03:15:45;96799.28;;;14.49;100.00
57594;BME280;43423;46.510;6.686;2023-05-08T03:18:15;96795.94;;;14.45;100.00
57594;BME280;43423;46.510;6.686;2023-05-08T03:20:44;96793.16;;;14.45;100.00
57594;BME280;43423;46.510;6.686;2023-05-08T03:23:12;96786.38;;;14.40;100.00
57594;BME280;43423;46.510;6.686;2023-05-08T03:25:41;96793.66;;;14.38;100.00
57594;BME280;43423;46.510;6.686;2023-05-08T03:28:09;96789.91;;;14.41;100.00
57594;BME280;43423;46.510;6.686;2023-05-08T03:30:36;96791.66;;;14.44;100.00
57594;BME280;43423;46.510;6.686;2023-05-08T03:33:03;96781.56;;;14.35;100.00
57594;BME280;43423;46.510;6.686;2023-05-08T03:35:31;96787.63;;;14.45;100.00
57594;BME280;43423;46.510;6.686;2023-05-08T03:37:58;96789.97;;;14.46;100.00
57594;BME280;43423;46.510;6.686;2023-05-08T03:40:24;96789.22;;;14.46;100.00
57594;BME280;43423;46.510;6.686;2023-05-08T03:42:49;96782.09;;;14.45;100.00
57594;BME280;43423;46.510;6.686;2023-05-08T03:45:15;96783.69;;;14.46;100.00
57594;BME280;43423;46.510;6.686;2023-05-08T03:47:42;96779.84;;;14.43;100.00
57594;BME280;43423;46.510;6.686;2023-05-08T03:50:08;96783.19;;;14.47;100.00
57594;BME280;43423;46.510;6.686;2023-05-08T03:52:34;96783.69;;;14.46;100.00
57594;BME280;43423;46.510;6.686;2023-05-08T03:55:00;96784.59;;;14.37;100.00
57594;BME280;43423;46.510;6.686;2023-05-08T03:57:40;96780.56;;;14.33;100.00
57594;BME280;43423;46.510;6.686;2023-05-08T04:00:27;96784.59;;;14.32;100.00
57594;BME280;43423;46.510;6.686;2023-05-08T04:03:04;96774.50;;;14.29;100.00
57594;BME280;43423;46.510;6.686;2023-05-08T04:05:47;96787.59;;;14.34;100.00
57594;BME280;43423;46.510;6.686;2023-05-08T04:08:24;96786.44;;;14.46;99.00
57594;BME280;43423;46.510;6.686;2023-05-08T04:11:06;96788.13;;;14.38;100.00
57594;BME280;43423;46.510;6.686;2023-05-08T04:13:34;96792.13;;;14.37;100.00
57594;BME280;43423;46.510;6.686;2023-05-08T04:16:09;96783.81;;;14.31;100.00
57594;BME280;43423;46.510;6.686;2023-05-08T04:18:40;96799.13;;;14.27;100.00
57594;BME280;43423;46.510;6.686;2023-05-08T04:21:09;96797.88;;;14.28;100.00
57594;BME280;43423;46.510;6.686;2023-05-08T04:23:37;96805.19;;;14.31;100.00
57594;BME280;43423;46.510;6.686;2023-05-08T04:26:05;96807.97;;;14.31;100.00
57594;BME280;43423;46.510;6.686;2023-05-08T04:28:32;96800.44;;;14.37;97.57
57594;BME280;43423;46.510;6.686;2023-05-08T04:31:00;96805.50;;;14.44;96.76
57594;BME280;43423;46.510;6.686;2023-05-08T04:33:27;96809.78;;;14.45;99.16
57594;BME280;43423;46.510;6.686;2023-05-08T04:35:53;96809.47;;;14.37;100.00
57594;BME280;43423;46.510;6.686;2023-05-08T04:38:18;96804.44;;;14.30;100.00
57594;BME280;43423;46.510;6.686;2023-05-08T04:40:44;96805.97;;;14.37;100.00
57594;BME280;43423;46.510;6.686;2023-05-08T04:43:09;96805.72;;;14.35;100.00
57594;BME280;43423;46.510;6.686;2023-05-08T04:45:35;96805.22;;;14.36;100.00
57594;BME280;43423;46.510;6.686;2023-05-08T04:48:00;96808.22;;;14.33;100.00
57594;BME280;43423;46.510;6.686;2023-05-08T04:50:26;96803.94;;;14.32;100.00
57594;BME280;43423;46.510;6.686;2023-05-08T04:52:51;96806.72;;;14.32;100.00
57594;BME280;43423;46.510;6.686;2023-05-08T04:55:17;96806.47;;;14.35;100.00
57594;BME280;43423;46.510;6.686;2023-05-08T04:57:42;96810.25;;;14.38;100.00
57594;BME280;43423;46.510;6.686;2023-05-08T05:00:09;96805.75;;;14.40;100.00
57594;BME280;43423;46.510;6.686;2023-05-08T05:02:34;96803.72;;;14.41;99.83
57594;BME280;43423;46.510;6.686;2023-05-08T05:05:00;96808.25;;;14.44;99.56
57594;BME280;43423;46.510;6.686;2023-05-08T05:07:26;96806.75;;;14.43;100.00
57594;BME280;43423;46.510;6.686;2023-05-08T05:09:51;96808.81;;;14.48;100.00
57594;BME280;43423;46.510;6.686;2023-05-08T05:12:17;96814.41;;;14.54;100.00
57594;BME280;43423;46.510;6.686;2023-05-08T05:14:42;96816.91;;;14.57;100.00
57594;BME280;43423;46.510;6.686;2023-05-08T05:17:08;96811.88;;;14.56;100.00
57594;BME280;43423;46.510;6.686;2023-05-08T05:19:34;96812.16;;;14.63;100.00
57594;BME280;43423;46.510;6.686;2023-05-08T05:21:59;96814.69;;;14.67;100.00
57594;BME280;43423;46.510;6.686;2023-05-08T05:24:25;96810.91;;;14.64;100.00
57594;BME280;43423;46.510;6.686;2023-05-08T05:26:51;96814.25;;;14.37;100.00
57594;BME280;43423;46.510;6.686;2023-05-08T05:29:16;96810.53;;;14.40;100.00
57594;BME280;43423;46.510;6.686;2023-05-08T05:31:42;96827.84;;;14.35;99.87
57594;BME280;43423;46.510;6.686;2023-05-08T05:34:08;96823.84;;;14.41;99.88
57594;BME280;43423;46.510;6.686;2023-05-08T05:36:33;96819.63;;;14.46;100.00
57594;BME280;43423;46.510;6.686;2023-05-08T05:38:59;96822.16;;;14.49;100.00
57594;BME280;43423;46.510;6.686;2023-05-08T05:41:25;96825.94;;;14.52;100.00
57594;BME280;43423;46.510;6.686;2023-05-08T05:43:50;96832.53;;;14.60;100.00
57594;BME280;43423;46.510;6.686;2023-05-08T05:46:16;96834.31;;;14.63;100.00
57594;BME280;43423;46.510;6.686;2023-05-08T05:48:42;96828.88;;;14.43;100.00
57594;BME280;43423;46.510;6.686;2023-05-08T05:51:07;96829.34;;;14.36;100.00
57594;BME280;43423;46.510;6.686;2023-05-08T05:53:33;96828.19;;;14.48;100.00
57594;BME280;43423;46.510;6.686;2023-05-08T05:55:58;96833.28;;;14.61;99.78
57594;BME280;43423;46.510;6.686;2023-05-08T05:58:24;96825.00;;;14.66;100.00
57594;BME280;43423;46.510;6.686;2023-05-08T06:00:50;96838.44;;;14.42;100.00
57594;BME280;43423;46.510;6.686;2023-05-08T06:03:15;96840.22;;;14.45;100.00
57594;BME280;43423;46.510;6.686;2023-05-08T06:05:41;96839.00;;;14.51;100.00
57594;BME280;43423;46.510;6.686;2023-05-08T06:08:07;96838.00;;;14.49;100.00
57594;BME280;43423;46.510;6.686;2023-05-08T06:10:32;96840.53;;;14.47;100.00
57594;BME280;43423;46.510;6.686;2023-05-08T06:12:58;96842.53;;;14.52;100.00
57594;BME280;43423;46.510;6.686;2023-05-08T06:15:24;96845.88;;;14.24;100.00
57594;BME280;43423;46.510;6.686;2023-05-08T06:17:49;96848.00;;;14.41;100.00
57594;BME280;43423;46.510;6.686;2023-05-08T06:20:15;96863.41;;;14.47;100.00
57594;BME280;43423;46.510;6.686;2023-05-08T06:22:41;96858.06;;;14.38;100.00
57594;BME280;43423;46.510;6.686;2023-05-08T06:25:07;96865.09;;;14.45;100.00
57594;BME280;43423;46.510;6.686;2023-05-08T06:27:33;96852.78;;;14.40;100.00
57594;BME280;43423;46.510;6.686;2023-05-08T06:29:59;96861.94;;;14.20;100.00
57594;BME280;43423;46.510;6.686;2023-05-08T06:32:24;96855.13;;;14.16;100.00
57594;BME280;43423;46.510;6.686;2023-05-08T06:34:50;96856.84;;;14.13;100.00
57594;BME280;43423;46.510;6.686;2023-05-08T06:37:15;96856.47;;;13.94;100.00
57594;BME280;43423;46.510;6.686;2023-05-08T06:39:41;96857.56;;;14.03;100.00
57594;BME280;43423;46.510;6.686;2023-05-08T06:42:07;96853.22;;;13.96;100.00
57594;BME280;43423;46.510;6.686;2023-05-08T06:44:33;96855.81;;;14.05;100.00
57594;BME280;43423;46.510;6.686;2023-05-08T06:46:58;96862.47;;;14.24;100.00
57594;BME280;43423;46.510;6.686;2023-05-08T06:49:24;96855.81;;;14.05;100.00
57594;BME280;43423;46.510;6.686;2023-05-08T06:51:50;96851.56;;;14.10;100.00
57594;BME280;43423;46.510;6.686;2023-05-08T06:54:15;96863.94;;;14.14;100.00
57594;BME280;43423;46.510;6.686;2023-05-08T06:56:41;96852.72;;;13.97;100.00
57594;BME280;43423;46.510;6.686;2023-05-08T06:59:07;96856.09;;;14.07;100.00
57594;BME280;43423;46.510;6.686;2023-05-08T07:01:32;96853.28;;;14.02;100.00
57594;BME280;43423;46.510;6.686;2023-05-08T07:03:58;96856.84;;;13.76;100.00
57594;BME280;43423;46.510;6.686;2023-05-08T07:06:24;96860.44;;;13.88;100.00
57594;BME280;43423;46.510;6.686;2023-05-08T07:08:49;96859.00;;;13.98;100.00
57594;BME280;43423;46.510;6.686;2023-05-08T07:11:15;96857.63;;;14.14;100.00
57594;BME280;43423;46.510;6.686;2023-05-08T07:13:41;96859.97;;;14.27;100.00
57594;BME280;43423;46.510;6.686;2023-05-08T07:16:11;96859.69;;;14.19;100.00
57594;BME280;43423;46.510;6.686;2023-05-08T07:18:36;96861.34;;;14.05;100.00
57594;BME280;43423;46.510;6.686;2023-05-08T07:21:03;96859.91;;;14.15;100.00
57594;BME280;43423;46.510;6.686;2023-05-08T07:23:28;96859.47;;;14.22;100.00
57594;BME280;43423;46.510;6.686;2023-05-08T07:25:54;96862.03;;;14.32;100.00
57594;BME280;43423;46.510;6.686;2023-05-08T07:28:20;96863.00;;;14.29;100.00
57594;BME280;43423;46.510;6.686;2023-05-08T07:30:45;96869.13;;;14.38;100.00
57594;BME280;43423;46.510;6.686;2023-05-08T07:33:11;96868.19;;;14.47;100.00
57594;BME280;43423;46.510;6.686;2023-05-08T07:35:38;96868.66;;;14.45;100.00
57594;BME280;43423;46.510;6.686;2023-05-08T07:38:03;96868.88;;;14.42;100.00
57594;BME280;43423;46.510;6.686;2023-05-08T07:40:29;96863.44;;;14.21;100.00
57594;BME280;43423;46.510;6.686;2023-05-08T07:42:54;96865.34;;;14.41;100.00
57594;BME280;43423;46.510;6.686;2023-05-08T07:45:20;96864.91;;;14.48;100.00
57594;BME280;43423;46.510;6.686;2023-05-08T07:47:51;96868.78;;;14.62;100.00
57594;BME280;43423;46.510;6.686;2023-05-08T07:50:17;96859.22;;;14.69;100.00
57594;BME280;43423;46.510;6.686;2023-05-08T07:52:43;96859.56;;;14.45;100.00
57594;BME280;43423;46.510;6.686;2023-05-08T07:55:09;96868.19;;;14.47;100.00
57594;BME280;43423;46.510;6.686;2023-05-08T07:57:41;96862.44;;;14.56;100.00
57594;BME280;43423;46.510;6.686;2023-05-08T08:00:11;96866.47;;;14.61;100.00
57594;BME280;43423;46.510;6.686;2023-05-08T08:02:37;96854.50;;;14.80;100.00
57594;BME280;43423;46.510;6.686;2023-05-08T08:05:04;96856.97;;;14.67;100.00
57594;BME280;43423;46.510;6.686;2023-05-08T08:07:30;96857.13;;;14.52;100.00
57594;BME280;43423;46.510;6.686;2023-05-08T08:10:00;96852.44;;;14.64;100.00
57594;BME280;43423;46.510;6.686;2023-05-08T08:12:26;96857.75;;;14.73;100.00
57594;BME280;43423;46.510;6.686;2023-05-08T08:14:51;96857.53;;;14.83;100.00
57594;BME280;43423;46.510;6.686;2023-05-08T08:17:17;96851.59;;;15.12;100.00
57594;BME280;43423;46.510;6.686;2023-05-08T08:19:43;96857.94;;;15.29;100.00
57594;BME280;43423;46.510;6.686;2023-05-08T08:22:08;96856.69;;;15.25;100.00
57594;BME280;43423;46.510;6.686;2023-05-08T08:24:34;96858.34;;;15.00;100.00
57594;BME280;43423;46.510;6.686;2023-05-08T08:27:00;96857.66;;;15.22;100.00
57594;BME280;43423;46.510;6.686;2023-05-08T08:29:26;96839.25;;;15.13;100.00
57594;BME280;43423;46.510;6.686;2023-05-08T08:31:51;96845.81;;;15.10;99.59
57594;BME280;43423;46.510;6.686;2023-05-08T08:34:17;96846.38;;;15.48;99.39
57594;BME280;43423;46.510;6.686;2023-05-08T08:36:43;96837.13;;;15.84;98.71
57594;BME280;43423;46.510;6.686;2023-05-08T08:39:08;96842.16;;;15.69;97.60
57594;BME280;43423;46.510;6.686;2023-05-08T08:41:34;96840.09;;;16.26;92.22
57594;BME280;43423;46.510;6.686;2023-05-08T08:44:00;96832.06;;;16.00;94.97
57594;BME280;43423;46.510;6.686;2023-05-08T08:46:26;96838.63;;;15.85;98.62
57594;BME280;43423;46.510;6.686;2023-05-08T08:48:55;96834.56;;;16.20;96.38
57594;BME280;43423;46.510;6.686;2023-05-08T08:51:27;96839.88;;;15.84;93.72
57594;BME280;43423;46.510;6.686;2023-05-08T08:56:31;96832.03;;;15.60;99.63
57594;BME280;43423;46.510;6.686;2023-05-08T08:58:59;96836.81;;;15.49;97.83
57594;BME280;43423;46.510;6.686;2023-05-08T09:01:27;96838.31;;;15.55;98.60
57594;BME280;43423;46.510;6.686;2023-05-08T09:03:56;96842.41;;;15.99;98.23
57594;BME280;43423;46.510;6.686;2023-05-08T09:06:21;96839.63;;;16.05;95.34
57594;BME280;43423;46.510;6.686;2023-05-08T09:08:48;96832.31;;;15.85;95.53
57594;BME280;43423;46.510;6.686;2023-05-08T09:11:13;96834.59;;;15.98;94.17
57594;BME280;43423;46.510;6.686;2023-05-08T09:13:39;96839.56;;;16.44;94.68
57594;BME280;43423;46.510;6.686;2023-05-08T09:16:04;96845.13;;;16.38;92.35
57594;BME280;43423;46.510;6.686;2023-05-08T09:18:30;96855.19;;;16.53;92.35
57594;BME280;43423;46.510;6.686;2023-05-08T09:20:56;96842.78;;;16.70;91.14
57594;BME280;43423;46.510;6.686;2023-05-08T09:23:22;96848.09;;;16.63;86.70
57594;BME280;43423;46.510;6.686;2023-05-08T09:25:47;96843.53;;;16.65;86.59
57594;BME280;43423;46.510;6.686;2023-05-08T09:28:17;96849.31;;;16.79;86.03
57594;BME280;43423;46.510;6.686;2023-05-08T09:30:54;96854.97;;;16.39;84.79
57594;BME280;43423;46.510;6.686;2023-05-08T09:33:23;96858.47;;;16.45;83.31
57594;BME280;43423;46.510;6.686;2023-05-08T09:35:49;96858.97;;;16.50;83.22
57594;BME280;43423;46.510;6.686;2023-05-08T09:38:31;96860.28;;;16.37;86.40
57594;BME280;43423;46.510;6.686;2023-05-08T09:43:35;96846.69;;;15.67;85.88
57594;BME280;43423;46.510;6.686;2023-05-08T09:46:23;96853.22;;;16.03;86.73
57594;BME280;43423;46.510;6.686;2023-05-08T09:48:51;96863.78;;;16.27;82.67
57594;BME280;43423;46.510;6.686;2023-05-08T09:51:17;96856.47;;;16.40;83.77
57594;BME280;43423;46.510;6.686;2023-05-08T09:53:43;96859.75;;;16.33;81.95
57594;BME280;43423;46.510;6.686;2023-05-08T09:56:08;96855.25;;;16.08;82.67
57594;BME280;43423;46.510;6.686;2023-05-08T09:58:42;96854.94;;;16.45;82.50
57594;BME280;43423;46.510;6.686;2023-05-08T10:01:27;96853.88;;;16.65;83.16
57594;BME280;43423;46.510;6.686;2023-05-08T10:03:52;96853.59;;;16.80;81.67
57594;BME280;43423;46.510;6.686;2023-05-08T10:06:18;96853.59;;;16.80;81.17
57594;BME280;43423;46.510;6.686;2023-05-08T10:08:44;96867.50;;;16.74;83.22
57594;BME280;43423;46.510;6.686;2023-05-08T10:11:17;96860.22;;;16.60;80.75
57594;BME280;43423;46.510;6.686;2023-05-08T10:13:44;96861.53;;;16.36;80.98
57594;BME280;43423;46.510;6.686;2023-05-08T10:16:15;96861.28;;;16.29;80.90
57594;BME280;43423;46.510;6.686;2023-05-08T10:18:45;96857.25;;;16.35;79.16
57594;BME280;43423;46.510;6.686;2023-05-08T10:21:12;96865.53;;;16.52;81.59
57594;BME280;43423;46.510;6.686;2023-05-08T10:23:38;96879.66;;;16.60;79.95
57594;BME280;43423;46.510;6.686;2023-05-08T10:26:12;96863.00;;;16.54;79.48
57594;BME280;43423;46.510;6.686;2023-05-08T10:28:42;96867.81;;;16.42;78.46
57594;BME280;43423;46.510;6.686;2023-05-08T10:31:11;96865.25;;;16.56;78.96
57594;BME280;43423;46.510;6.686;2023-05-08T10:33:39;96863.56;;;16.19;75.30
57594;BME280;43423;46.510;6.686;2023-05-08T10:36:05;96864.78;;;16.40;76.88
57594;BME280;43423;46.510;6.686;2023-05-08T10:38:32;96859.28;;;16.12;76.28
57594;BME280;43423;46.510;6.686;2023-05-08T10:41:01;96860.28;;;16.32;77.43
57594;BME280;43423;46.510;6.686;2023-05-08T10:43:28;96863.78;;;16.38;78.49
57594;BME280;43423;46.510;6.686;2023-05-08T10:45:55;96860.78;;;16.30;78.66
57594;BME280;43423;46.510;6.686;2023-05-08T10:54:14;96852.72;;;16.21;77.79
57594;BME280;43423;46.510;6.686;2023-05-08T10:56:43;96850.91;;;16.40;79.02
57594;BME280;43423;46.510;6.686;2023-05-08T10:59:17;96855.44;;;16.55;79.74
57594;BME280;43423;46.510;6.686;2023-05-08T11:01:46;96849.59;;;16.64;77.87
57594;BME280;43423;46.510;6.686;2023-05-08T11:04:20;96848.56;;;16.78;77.36
57594;BME280;43423;46.510;6.686;2023-05-08T11:06:49;96841.22;;;16.81;76.45
57594;BME280;43423;46.510;6.686;2023-05-08T11:09:19;96828.59;;;16.85;78.09
57594;BME280;43423;46.510;6.686;2023-05-08T11:11:54;96840.38;;;17.02;75.72
57594;BME280;43423;46.510;6.686;2023-05-08T11:14:23;96841.91;;;16.98;79.11
57594;BME280;43423;46.510;6.686;2023-05-08T11:19:20;96846.47;;;17.01;76.84
57594;BME280;43423;46.510;6.686;2023-05-08T11:24:51;96832.59;;;17.37;77.75
57594;BME280;43423;46.510;6.686;2023-05-08T11:27:17;96829.56;;;17.40;77.90
57594;BME280;43423;46.510;6.686;2023-05-08T11:29:43;96822.09;;;17.24;78.79
57594;BME280;43423;46.510;6.686;2023-05-08T11:32:09;96829.38;;;17.27;76.77
57594;BME280;43423;46.510;6.686;2023-05-08T11:37:17;96825.31;;;17.34;75.45
57594;BME280;43423;46.510;6.686;2023-05-08T11:39:43;96825.72;;;17.49;76.09
57594;BME280;43423;46.510;6.686;2023-05-08T11:47:31;96826.50;;;17.02;72.00
57594;BME280;43423;46.510;6.686;2023-05-08T11:49:58;96820.13;;;17.13;72.53
57594;BME280;43423;46.510;6.686;2023-05-08T11:52:23;96815.50;;;17.27;70.90
57594;BME280;43423;46.510;6.686;2023-05-08T11:54:49;96820.91;;;17.49;70.94
57594;BME280;43423;46.510;6.686;2023-05-08T11:57:16;96825.25;;;17.80;70.01
57594;BME280;43423;46.510;6.686;2023-05-08T11:59:42;96821.31;;;17.70;70.48
57594;BME280;43423;46.510;6.686;2023-05-08T12:02:09;96823.34;;;17.64;71.19
57594;BME280;43423;46.510;6.686;2023-05-08T12:04:47;96805.50;;;17.48;69.39
57594;BME280;43423;46.510;6.686;2023-05-08T12:07:12;96818.03;;;17.61;68.65
57594;BME280;43423;46.510;6.686;2023-05-08T12:09:38;96809.59;;;17.42;69.42
57594;BME280;43423;46.510;6.686;2023-05-08T12:12:03;96812.00;;;17.56;70.49
57594;BME280;43423;46.510;6.686;2023-05-08T12:14:29;96810.72;;;17.63;71.39
57594;BME280;43423;46.510;6.686;2023-05-08T12:16:55;96808.16;;;17.65;72.04
57594;BME280;43423;46.510;6.686;2023-05-08T12:19:20;96808.38;;;17.67;70.78
57594;BME280;43423;46.510;6.686;2023-05-08T12:21:46;96822.59;;;17.64;68.52
57594;BME280;43423;46.510;6.686;2023-05-08T12:24:16;96801.69;;;17.51;70.13
57594;BME280;43423;46.510;6.686;2023-05-08T12:26:47;96808.84;;;17.41;69.37
57594;BME280;43423;46.510;6.686;2023-05-08T12:29:13;96815.44;;;17.74;70.66
57594;BME280;43423;46.510;6.686;2023-05-08T12:31:38;96819.50;;;17.73;69.94
57594;BME280;43423;46.510;6.686;2023-05-08T12:34:05;96812.91;;;17.76;71.81
57594;BME280;43423;46.510;6.686;2023-05-08T12:36:34;96823.88;;;17.57;70.84
57594;BME280;43423;46.510;6.686;2023-05-08T12:41:49;96811.50;;;17.94;68.88
57594;BME280;43423;46.510;6.686;2023-05-08T12:44:19;96814.91;;;18.05;70.08
57594;BME280;43423;46.510;6.686;2023-05-08T12:46:55;96816.69;;;18.33;69.21
57594;BME280;43423;46.510;6.686;2023-05-08T12:49:26;96814.47;;;18.26;69.78
57594;BME280;43423;46.510;6.686;2023-05-08T12:52:05;96808.84;;;17.77;70.62
57594;BME280;43423;46.510;6.686;2023-05-08T12:54:39;96808.91;;;17.66;70.58
57594;BME280;43423;46.510;6.686;2023-05-08T12:57:12;96816.91;;;17.80;69.88
57594;BME280;43423;46.510;6.686;2023-05-08T12:59:38;96805.88;;;17.99;70.03
57594;BME280;43423;46.510;6.686;2023-05-08T13:02:14;96821.09;;;17.93;70.67
57594;BME280;43423;46.510;6.686;2023-05-08T13:04:40;96818.28;;;17.98;70.94
57594;BME280;43423;46.510;6.686;2023-05-08T13:07:05;96817.47;;;18.03;71.34
57594;BME280;43423;46.510;6.686;2023-05-08T13:09:31;96815.63;;;18.11;70.61
57594;BME280;43423;46.510;6.686;2023-05-08T13:11:57;96805.81;;;18.05;70.37
57594;BME280;43423;46.510;6.686;2023-05-08T13:14:23;96816.91;;;18.10;72.06
57594;BME280;43423;46.510;6.686;2023-05-08T13:16:48;96815.16;;;18.07;72.34
57594;BME280;43423;46.510;6.686;2023-05-08T13:19:16;96808.03;;;18.12;73.74
57594;BME280;43423;46.510;6.686;2023-05-08T13:21:42;96806.69;;;17.94;71.42
57594;BME280;43423;46.510;6.686;2023-05-08T13:24:14;96804.00;;;17.83;70.79
57594;BME280;43423;46.510;6.686;2023-05-08T13:26:39;96807.00;;;17.85;71.74
57594;BME280;43423;46.510;6.686;2023-05-08T13:29:05;96801.50;;;17.79;72.73
57594;BME280;43423;46.510;6.686;2023-05-08T13:31:30;96802.31;;;17.69;72.40
57594;BME280;43423;46.510;6.686;2023-05-08T13:33:56;96799.69;;;17.82;72.80
57594;BME280;43423;46.510;6.686;2023-05-08T13:36:22;96791.28;;;17.93;72.64
57594;BME280;43423;46.510;6.686;2023-05-08T13:38:48;96791.75;;;17.62;73.12